createdAt,value
2018-08-28T00:00:47.253Z,10.67
2018-08-28T00:03:39.351Z,11.23
2018-08-28T00:06:09.725Z,9.93
2018-08-28T00:08:40.796Z,9.73
2018-08-28T00:11:11.984Z,12.17
2018-08-28T00:13:43.391Z,9.47
2018-08-28T00:16:13.778Z,8.93
2018-08-28T00:19:05.604Z,11.33
2018-08-28T00:21:35.998Z,10.60
2018-08-28T00:24:07.162Z,12.20
2018-08-28T00:26:37.586Z,11.40
2018-08-28T00:29:07.981Z,8.47
2018-08-28T00:31:40.085Z,9.43
2018-08-28T00:34:10.556Z,9.47
2018-08-28T00:36:40.933Z,9.27
2018-08-28T00:39:11.308Z,10.63
2018-08-28T00:41:41.723Z,10.30
2018-08-28T00:44:12.116Z,9.43
2018-08-28T00:46:42.503Z,9.97
2018-08-28T00:52:02.909Z,10.90
2018-08-28T00:54:33.309Z,10.77
2018-08-28T00:57:03.690Z,9.60
2018-08-28T00:59:34.085Z,11.10
2018-08-28T01:02:04.490Z,11.97
2018-08-28T01:04:35.907Z,9.40
2018-08-28T01:07:06.291Z,9.83
2018-08-28T01:09:36.715Z,10.13
2018-08-28T01:12:07.174Z,10.53
2018-08-28T01:14:37.512Z,9.67
2018-08-28T01:17:08.665Z,9.63
2018-08-28T01:19:39.048Z,7.50
2018-08-28T01:22:09.445Z,10.33
2018-08-28T01:25:01.214Z,10.27
2018-08-28T01:27:32.366Z,9.47
2018-08-28T01:30:03.757Z,7.70
2018-08-28T01:32:55.606Z,10.67
2018-08-28T01:35:25.984Z,10.60
2018-08-28T01:37:56.295Z,8.17
2018-08-28T01:40:27.481Z,10.00
2018-08-28T01:43:19.290Z,7.93
2018-08-28T01:45:49.711Z,9.13
2018-08-28T01:48:20.100Z,9.37
2018-08-28T01:50:50.489Z,10.10
2018-08-28T01:53:40.972Z,9.37
2018-08-28T01:56:11.349Z,9.00
2018-08-28T01:58:41.728Z,10.37
2018-08-28T02:01:12.817Z,8.90
2018-08-28T02:03:43.125Z,9.87
2018-08-28T02:06:13.520Z,9.67
2018-08-28T02:08:43.951Z,9.77
2018-08-28T02:11:16.397Z,12.60
2018-08-28T02:13:47.557Z,9.50
2018-08-28T02:16:17.974Z,8.20
2018-08-28T02:18:48.372Z,9.93
2018-08-28T02:21:18.760Z,12.00
2018-08-28T02:23:55.309Z,8.90
2018-08-28T02:26:25.703Z,9.13
2018-08-28T02:28:56.856Z,10.83
2018-08-28T02:31:28.039Z,9.90
2018-08-28T02:33:58.418Z,11.30
2018-08-28T02:36:29.561Z,8.13
2018-08-28T02:38:59.974Z,10.37
2018-08-28T02:41:30.547Z,10.43
2018-08-28T02:44:00.875Z,12.13
2018-08-28T02:46:32.043Z,10.40
2018-08-28T02:49:21.529Z,8.63
2018-08-28T02:51:55.014Z,9.77
2018-08-28T02:54:26.420Z,8.53
2018-08-28T02:56:57.580Z,9.80
2018-08-28T02:59:27.992Z,9.47
2018-08-28T03:01:58.381Z,8.00
2018-08-28T03:04:28.772Z,8.60
2018-08-28T03:06:59.171Z,8.47
2018-08-28T03:09:30.257Z,12.93
2018-08-28T03:12:04.759Z,9.00
2018-08-28T03:14:35.082Z,11.17
2018-08-28T03:17:05.460Z,9.73
2018-08-28T03:19:35.866Z,9.07
2018-08-28T03:22:27.595Z,9.83
2018-08-28T03:25:19.407Z,10.93
2018-08-28T03:27:50.016Z,7.87
2018-08-28T03:30:20.331Z,8.83
2018-08-28T03:32:50.731Z,8.43
2018-08-28T03:35:23.097Z,10.83
2018-08-28T03:37:53.466Z,9.60
2018-08-28T03:40:23.875Z,11.77
2018-08-28T03:42:55.034Z,8.43
2018-08-28T03:45:25.414Z,10.13
2018-08-28T03:47:55.841Z,9.63
2018-08-28T03:50:26.238Z,12.57
2018-08-28T03:52:56.547Z,8.47
2018-08-28T03:55:27.014Z,11.73
2018-08-28T03:57:58.125Z,11.57
2018-08-28T04:00:28.696Z,9.40
2018-08-28T04:03:03.214Z,9.80
2018-08-28T04:05:33.601Z,9.63
2018-08-28T04:08:03.984Z,11.60
2018-08-28T04:10:35.555Z,9.27
2018-08-28T04:13:06.698Z,10.83
2018-08-28T04:15:37.084Z,9.77
2018-08-28T04:18:26.863Z,8.63
2018-08-28T04:21:04.569Z,9.47
2018-08-28T04:23:54.367Z,9.83
2018-08-28T04:26:24.756Z,9.80
2018-08-28T04:28:55.152Z,8.27
2018-08-28T04:31:25.570Z,11.20
2018-08-28T04:33:55.972Z,10.40
2018-08-28T04:36:26.345Z,9.40
2018-08-28T04:38:56.759Z,9.50
2018-08-28T04:41:27.898Z,9.30
2018-08-28T04:44:00.090Z,10.83
2018-08-28T04:46:30.431Z,9.37
2018-08-28T04:49:00.840Z,11.63
2018-08-28T04:51:31.155Z,9.67
2018-08-28T04:54:01.595Z,9.43
2018-08-28T04:56:31.933Z,8.63
2018-08-28T04:59:02.317Z,10.60
2018-08-28T05:01:33.435Z,10.83
2018-08-28T05:06:48.264Z,11.27
2018-08-28T05:09:19.341Z,10.27
2018-08-28T05:11:49.740Z,9.00
2018-08-28T05:14:20.914Z,8.57
2018-08-28T05:17:10.405Z,10.27
2018-08-28T05:19:44.913Z,10.80
2018-08-28T05:22:37.670Z,12.60
2018-08-28T05:25:29.456Z,9.27
2018-08-28T05:28:00.575Z,11.07
2018-08-28T05:30:31.040Z,10.23
2018-08-28T05:33:21.518Z,9.47
2018-08-28T05:35:52.665Z,10.43
2018-08-28T05:38:24.009Z,10.43
2018-08-28T05:40:55.179Z,10.23
2018-08-28T05:43:25.571Z,10.33
2018-08-28T05:45:56.718Z,10.50
2018-08-28T05:48:27.914Z,10.17
2018-08-28T05:51:19.710Z,11.53
2018-08-28T05:53:50.110Z,14.50
2018-08-28T05:56:20.585Z,11.43
2018-08-28T05:58:50.914Z,10.63
2018-08-28T06:01:21.333Z,9.63
2018-08-28T06:03:51.733Z,10.27
2018-08-28T06:06:22.888Z,11.10
2018-08-28T06:08:53.470Z,9.40
2018-08-28T06:11:24.456Z,11.60
2018-08-28T06:13:54.847Z,11.70
2018-08-28T06:16:25.271Z,10.50
2018-08-28T06:18:55.652Z,11.00
2018-08-28T06:21:26.050Z,9.10
2018-08-28T06:23:56.399Z,12.03
2018-08-28T06:26:26.863Z,12.10
2018-08-28T06:28:57.934Z,12.53
2018-08-28T06:31:28.364Z,8.67
2018-08-28T06:33:58.827Z,10.07
2018-08-28T06:36:29.152Z,11.10
2018-08-28T06:38:59.582Z,9.87
2018-08-28T06:41:29.971Z,12.60
2018-08-28T06:44:00.463Z,10.77
2018-08-28T06:46:36.905Z,10.03
2018-08-28T06:49:07.295Z,11.80
2018-08-28T06:51:37.617Z,10.67
2018-08-28T06:54:08.274Z,9.83
2018-08-28T06:56:39.475Z,9.93
2018-08-28T06:59:09.822Z,10.60
2018-08-28T07:01:40.238Z,14.30
2018-08-28T07:04:10.620Z,13.07
2018-08-28T07:06:40.945Z,10.37
2018-08-28T07:09:11.358Z,14.10
2018-08-28T07:11:41.758Z,13.60
2018-08-28T07:14:12.128Z,14.00
2018-08-28T07:16:42.556Z,16.30
2018-08-28T07:19:12.949Z,15.30
2018-08-28T07:21:44.092Z,11.07
2018-08-28T07:24:15.259Z,10.70
2018-08-28T07:26:45.639Z,8.53
2018-08-28T07:29:16.049Z,11.03
2018-08-28T07:32:07.882Z,9.03
2018-08-28T07:34:38.274Z,12.30
2018-08-28T07:37:08.664Z,10.80
2018-08-28T07:39:39.084Z,9.77
2018-08-28T07:42:09.480Z,7.90
2018-08-28T07:44:46.026Z,10.13
2018-08-28T07:47:16.408Z,11.93
2018-08-28T07:49:46.787Z,8.57
2018-08-28T07:52:17.197Z,11.33
2018-08-28T07:54:47.576Z,11.80
2018-08-28T07:57:17.969Z,15.50
2018-08-28T07:59:53.508Z,10.60
2018-08-28T08:02:23.904Z,9.87
2018-08-28T08:04:55.078Z,8.93
2018-08-28T08:07:25.498Z,8.97
2018-08-28T08:09:55.890Z,9.00
2018-08-28T08:12:26.291Z,10.03
2018-08-28T08:14:56.718Z,7.83
2018-08-28T08:17:27.113Z,11.40
2018-08-28T08:19:57.512Z,10.77
2018-08-28T08:22:27.924Z,11.37
2018-08-28T08:24:58.312Z,9.53
2018-08-28T08:27:28.695Z,8.97
2018-08-28T08:29:59.115Z,7.60
2018-08-28T08:32:30.257Z,7.90
2018-08-28T08:35:01.424Z,8.57
2018-08-28T08:37:31.839Z,6.47
2018-08-28T08:40:02.992Z,9.60
2018-08-28T08:42:33.388Z,9.03
2018-08-28T08:45:03.829Z,9.00
2018-08-28T08:47:34.201Z,7.73
2018-08-28T08:50:04.581Z,9.97
2018-08-28T08:52:34.993Z,9.07
2018-08-28T08:55:05.373Z,7.90
2018-08-28T08:57:35.770Z,6.77
2018-08-28T09:00:06.196Z,9.07
2018-08-28T09:02:36.603Z,10.63
2018-08-28T09:05:06.991Z,8.03
2018-08-28T09:07:39.428Z,10.77
2018-08-28T09:13:03.973Z,8.83
2018-08-28T09:15:53.474Z,7.53
2018-08-28T09:18:23.886Z,11.60
2018-08-28T09:21:15.695Z,10.30
2018-08-28T09:23:46.114Z,6.97
2018-08-28T09:26:16.502Z,9.57
2018-08-28T09:28:46.905Z,10.57
2018-08-28T09:31:17.415Z,9.43
2018-08-28T09:33:47.798Z,9.50
2018-08-28T09:36:18.191Z,9.07
2018-08-28T09:38:48.646Z,8.60
2018-08-28T09:41:18.995Z,10.23
2018-08-28T09:43:49.394Z,9.30
2018-08-28T09:46:19.791Z,10.23
2018-08-28T09:48:50.187Z,7.97
2018-08-28T09:51:20.567Z,8.67
2018-08-28T09:53:50.981Z,9.07
2018-08-28T09:56:21.367Z,9.07
2018-08-28T09:58:51.743Z,9.43
2018-08-28T10:01:22.174Z,14.70
2018-08-28T10:03:54.616Z,10.90
2018-08-28T10:06:45.164Z,8.63
2018-08-28T10:09:15.562Z,9.60
2018-08-28T10:11:45.961Z,11.27
2018-08-28T10:14:16.390Z,12.70
2018-08-28T10:16:46.797Z,7.30
2018-08-28T10:19:17.171Z,8.67
2018-08-28T10:21:47.571Z,11.20
2018-08-28T10:24:17.960Z,11.23
2018-08-28T10:26:49.121Z,10.67
2018-08-28T10:29:19.539Z,10.20
2018-08-28T10:31:49.924Z,10.13
2018-08-28T10:34:20.321Z,9.43
2018-08-28T10:36:58.239Z,10.80
2018-08-28T10:39:28.563Z,10.67
2018-08-28T10:42:18.352Z,10.60
2018-08-28T10:44:48.758Z,13.50
2018-08-28T10:47:19.359Z,10.03
2018-08-28T10:49:49.769Z,11.83
2018-08-28T10:52:20.912Z,8.73
2018-08-28T10:54:51.989Z,9.33
2018-08-28T10:57:22.412Z,11.17
2018-08-28T10:59:52.796Z,12.53
2018-08-28T11:02:23.172Z,12.97
2018-08-28T11:04:54.567Z,11.90
2018-08-28T11:07:25.143Z,13.47
2018-08-28T11:09:55.524Z,12.07
2018-08-28T11:12:26.974Z,15.00
2018-08-28T11:14:57.354Z,11.40
2018-08-28T11:17:28.768Z,12.63
2018-08-28T11:19:59.112Z,10.23
2018-08-28T11:22:29.513Z,9.50
2018-08-28T11:24:59.905Z,12.00
2018-08-28T11:27:50.695Z,11.67
2018-08-28T11:30:22.098Z,12.20
2018-08-28T11:32:53.245Z,14.77
2018-08-28T11:35:24.440Z,14.47
2018-08-28T11:38:02.085Z,13.63
2018-08-28T11:40:32.497Z,14.13
2018-08-28T11:43:04.938Z,13.83
2018-08-28T11:45:36.268Z,10.73
2018-08-28T11:48:06.711Z,13.97
2018-08-28T11:50:38.122Z,11.77
2018-08-28T11:53:08.518Z,13.47
2018-08-28T11:55:38.931Z,11.83
2018-08-28T11:58:09.317Z,11.80
2018-08-28T12:00:39.689Z,11.43
2018-08-28T12:03:10.111Z,11.13
2018-08-28T12:05:42.546Z,13.37
2018-08-28T12:08:12.939Z,12.70
2018-08-28T12:10:43.365Z,11.87
2018-08-28T12:13:14.132Z,10.70
2018-08-28T12:15:44.422Z,13.67
2018-08-28T12:18:14.854Z,13.80
2018-08-28T12:20:45.279Z,12.67
2018-08-28T12:23:18.726Z,12.93
2018-08-28T12:25:50.087Z,14.97
2018-08-28T12:28:23.546Z,12.93
2018-08-28T12:30:54.713Z,15.30
2018-08-28T12:33:25.119Z,11.50
2018-08-28T12:35:56.283Z,12.60
2018-08-28T12:38:26.665Z,13.53
2018-08-28T12:40:57.083Z,11.60
2018-08-28T12:43:27.464Z,15.13
2018-08-28T12:45:57.864Z,11.77
2018-08-28T12:48:29.054Z,12.50
2018-08-28T12:50:59.445Z,13.77
2018-08-28T12:53:30.597Z,14.67
2018-08-28T12:56:00.944Z,15.10
2018-08-28T12:58:31.335Z,14.77
2018-08-28T13:01:01.711Z,13.87
2018-08-28T13:03:32.076Z,15.10
2018-08-28T13:06:02.407Z,13.93
2018-08-28T13:08:33.502Z,12.23
2018-08-28T13:11:11.240Z,14.23
2018-08-28T13:13:41.616Z,12.77
2018-08-28T13:16:12.011Z,11.80
2018-08-28T13:18:42.422Z,14.20
2018-08-28T13:21:12.814Z,11.63
2018-08-28T13:24:04.643Z,13.17
2018-08-28T13:26:41.099Z,13.47
2018-08-28T13:32:00.127Z,14.80
2018-08-28T13:34:31.562Z,11.53
2018-08-28T13:37:01.945Z,12.17
2018-08-28T13:39:32.414Z,13.60
2018-08-28T13:42:03.516Z,14.30
2018-08-28T13:44:33.964Z,12.57
2018-08-28T13:47:05.223Z,13.90
2018-08-28T13:49:35.504Z,12.83
2018-08-28T13:52:05.901Z,13.20
2018-08-28T13:54:36.235Z,12.97
2018-08-28T13:57:07.436Z,13.40
2018-08-28T13:59:44.996Z,13.33
2018-08-28T14:02:15.402Z,12.53
2018-08-28T14:04:46.549Z,13.33
2018-08-28T14:07:17.642Z,12.63
2018-08-28T14:10:10.420Z,11.80
2018-08-28T14:12:40.808Z,12.50
2018-08-28T14:15:12.148Z,13.33
2018-08-28T14:17:42.559Z,12.67
2018-08-28T14:20:12.955Z,13.83
2018-08-28T14:22:43.344Z,16.00
2018-08-28T14:25:13.686Z,14.40
2018-08-28T14:27:44.082Z,13.80
2018-08-28T14:30:14.490Z,13.30
2018-08-28T14:32:44.914Z,13.23
2018-08-28T14:35:16.062Z,13.40
2018-08-28T14:37:46.448Z,13.90
2018-08-28T14:40:16.847Z,13.03
2018-08-28T14:43:05.568Z,12.13
2018-08-28T14:45:36.777Z,16.50
2018-08-28T14:48:07.174Z,13.37
2018-08-28T14:50:41.679Z,13.83
2018-08-28T14:53:12.002Z,14.97
2018-08-28T14:55:42.394Z,13.97
2018-08-28T14:58:12.820Z,12.00
2018-08-28T15:00:43.203Z,11.67
2018-08-28T15:03:15.642Z,11.83
2018-08-28T15:05:46.078Z,12.30
2018-08-28T15:08:17.217Z,14.23
2018-08-28T15:10:47.615Z,13.60
2018-08-28T15:13:18.027Z,10.47
2018-08-28T15:15:48.414Z,11.10
2018-08-28T15:18:18.794Z,14.53
2018-08-28T15:20:49.228Z,13.13
2018-08-28T15:23:19.592Z,14.03
2018-08-28T15:25:49.985Z,14.80
2018-08-28T15:28:21.101Z,15.57
2018-08-28T15:30:51.500Z,13.13
2018-08-28T15:33:22.926Z,12.60
2018-08-28T15:35:53.355Z,14.23
2018-08-28T15:38:23.717Z,12.20
2018-08-28T15:40:54.845Z,12.77
2018-08-28T15:43:25.275Z,14.53
2018-08-28T15:45:55.839Z,13.73
2018-08-28T15:48:26.211Z,12.53
2018-08-28T15:50:56.623Z,12.97
2018-08-28T15:53:27.010Z,13.47
2018-08-28T15:56:21.904Z,16.37
2018-08-28T15:59:14.322Z,13.43
2018-08-28T16:01:44.727Z,13.07
2018-08-28T16:04:15.111Z,12.93
2018-08-28T16:06:45.500Z,13.03
2018-08-28T16:09:15.908Z,16.70
2018-08-28T16:11:46.998Z,15.50
2018-08-28T16:14:37.783Z,14.80
2018-08-28T16:17:08.139Z,15.10
2018-08-28T16:19:38.523Z,13.90
2018-08-28T16:22:08.943Z,12.50
2018-08-28T16:24:39.333Z,15.70
2018-08-28T16:27:09.720Z,14.27
2018-08-28T16:29:40.951Z,13.40
2018-08-28T16:32:11.286Z,12.60
2018-08-28T16:34:45.652Z,13.03
2018-08-28T16:37:18.733Z,16.77
2018-08-28T16:39:49.125Z,13.80
2018-08-28T16:42:19.441Z,16.57
2018-08-28T16:44:49.785Z,13.57
2018-08-28T16:47:20.106Z,12.53
2018-08-28T16:49:55.576Z,14.67
2018-08-28T16:52:25.951Z,13.30
2018-08-28T16:54:56.325Z,12.90
2018-08-28T16:57:26.754Z,14.67
2018-08-28T16:59:57.156Z,13.27
2018-08-28T17:02:27.532Z,15.83
2018-08-28T17:04:57.878Z,14.60
2018-08-28T17:07:30.817Z,16.60
2018-08-28T17:10:01.194Z,13.13
2018-08-28T17:15:17.721Z,13.87
2018-08-28T17:17:48.117Z,15.33
2018-08-28T17:20:21.121Z,15.33
2018-08-28T17:22:54.999Z,17.13
2018-08-28T17:25:25.381Z,14.93
2018-08-28T17:27:55.994Z,14.67
2018-08-28T17:30:26.403Z,16.23
2018-08-28T17:32:56.726Z,19.27
2018-08-28T17:35:27.886Z,16.90
2018-08-28T17:37:59.004Z,16.23
2018-08-28T17:40:32.151Z,16.90
2018-08-28T17:43:05.630Z,17.77
2018-08-28T17:45:36.019Z,15.47
2018-08-28T17:48:06.399Z,15.70
2018-08-28T17:50:36.825Z,15.80
2018-08-28T17:53:07.190Z,15.50
2018-08-28T17:55:37.594Z,17.03
2018-08-28T17:58:08.007Z,16.47
2018-08-28T18:00:38.398Z,16.10
2018-08-28T18:03:09.549Z,18.47
2018-08-28T18:05:43.388Z,15.60
2018-08-28T18:08:13.778Z,17.70
2018-08-28T18:10:46.824Z,14.87
2018-08-28T18:13:17.939Z,16.97
2018-08-28T18:15:48.269Z,16.60
2018-08-28T18:18:18.657Z,17.17
2018-08-28T18:20:51.959Z,19.80
2018-08-28T18:23:23.111Z,16.90
2018-08-28T18:25:53.487Z,18.10
2018-08-28T18:28:23.919Z,16.97
2018-08-28T18:30:54.313Z,15.87
2018-08-28T18:33:24.722Z,15.23
2018-08-28T18:35:55.193Z,17.13
2018-08-28T18:38:28.024Z,18.23
2018-08-28T18:40:59.930Z,15.20
2018-08-28T18:43:30.326Z,14.63
2018-08-28T18:46:00.691Z,19.27
2018-08-28T18:48:32.110Z,16.07
2018-08-28T18:51:02.468Z,17.37
2018-08-28T18:53:38.939Z,16.10
2018-08-28T18:56:14.080Z,16.63
2018-08-28T18:58:44.371Z,15.93
2018-08-28T19:01:14.750Z,17.20
2018-08-28T19:03:50.215Z,19.00
2018-08-28T19:06:21.516Z,14.87
2018-08-28T19:09:11.335Z,15.50
2018-08-28T19:11:41.635Z,16.40
2018-08-28T19:14:14.834Z,16.43
2018-08-28T19:16:48.154Z,16.30
2018-08-28T19:19:19.317Z,19.67
2018-08-28T19:21:49.694Z,16.17
2018-08-28T19:24:20.133Z,16.83
2018-08-28T19:26:50.525Z,17.40
2018-08-28T19:29:20.914Z,16.13
2018-08-28T19:31:52.217Z,15.10
2018-08-28T19:34:32.599Z,17.13
2018-08-28T19:37:04.045Z,15.63
2018-08-28T19:39:34.447Z,16.47
2018-08-28T19:42:26.922Z,16.13
2018-08-28T19:44:57.303Z,15.83
2018-08-28T19:47:32.478Z,16.33
2018-08-28T19:50:02.887Z,15.03
2018-08-28T19:52:33.271Z,14.70
2018-08-28T19:55:03.738Z,15.67
2018-08-28T19:57:33.993Z,18.00
2018-08-28T20:00:07.067Z,18.03
2018-08-28T20:02:37.476Z,16.77
2018-08-28T20:05:30.054Z,18.63
2018-08-28T20:08:00.492Z,17.17
2018-08-28T20:10:30.883Z,18.60
2018-08-28T20:13:02.242Z,18.13
2018-08-28T20:15:32.665Z,20.07
2018-08-28T20:18:05.998Z,17.40
2018-08-28T20:20:37.144Z,15.10
2018-08-28T20:23:28.862Z,16.30
2018-08-28T20:26:02.676Z,17.33
2018-08-28T20:28:33.870Z,15.40
2018-08-28T20:31:12.115Z,16.53
2018-08-28T20:33:42.533Z,15.40
2018-08-28T20:36:12.974Z,15.23
2018-08-28T20:38:43.380Z,16.33
2018-08-28T20:41:13.789Z,16.97
2018-08-28T20:43:44.240Z,15.27
2018-08-28T20:46:14.585Z,15.03
2018-08-28T20:48:48.232Z,14.57
2018-08-28T20:51:18.637Z,15.20
2018-08-28T20:53:51.543Z,14.70
2018-08-28T20:59:06.926Z,15.47
2018-08-28T21:01:37.547Z,13.60
2018-08-28T21:04:08.683Z,15.30
2018-08-28T21:06:39.869Z,17.00
2018-08-28T21:09:10.242Z,13.97
2018-08-28T21:11:40.640Z,17.10
2018-08-28T21:14:11.043Z,17.30
2018-08-28T21:16:44.527Z,15.83
2018-08-28T21:19:14.921Z,15.10
2018-08-28T21:21:46.339Z,16.13
2018-08-28T21:24:17.035Z,14.47
2018-08-28T21:26:47.412Z,14.13
2018-08-28T21:29:17.836Z,15.30
2018-08-28T21:32:07.332Z,13.87
2018-08-28T21:34:37.728Z,14.47
2018-08-28T21:37:08.051Z,15.90
2018-08-28T21:39:38.472Z,14.53
2018-08-28T21:42:10.945Z,16.30
2018-08-28T21:44:42.037Z,15.33
2018-08-28T21:47:13.251Z,15.40
2018-08-28T21:49:43.649Z,14.30
2018-08-28T21:52:16.085Z,17.10
2018-08-28T21:54:46.502Z,14.77
2018-08-28T21:57:16.901Z,14.30
2018-08-28T21:59:50.362Z,15.13
2018-08-28T22:02:20.767Z,17.80
2018-08-28T22:04:51.913Z,11.93
2018-08-28T22:07:23.053Z,15.57
2018-08-28T22:09:54.215Z,15.53
2018-08-28T22:12:25.388Z,15.17
2018-08-28T22:15:14.908Z,14.10
2018-08-28T22:17:45.308Z,14.13
2018-08-28T22:20:15.709Z,14.33
2018-08-28T22:22:46.131Z,14.63
2018-08-28T22:25:16.517Z,13.60
2018-08-28T22:27:46.898Z,12.80
2018-08-28T22:30:36.351Z,13.27
2018-08-28T22:33:06.740Z,14.40
2018-08-28T22:35:37.122Z,12.57
2018-08-28T22:38:09.602Z,15.30
2018-08-28T22:40:42.022Z,14.83
2018-08-28T22:43:13.171Z,14.07
2018-08-28T22:45:44.360Z,14.43
2018-08-28T22:48:18.825Z,15.20
2018-08-28T22:50:49.222Z,13.07
2018-08-28T22:53:19.639Z,14.43
2018-08-28T22:55:54.102Z,14.77
2018-08-28T22:58:24.504Z,14.43
2018-08-28T23:01:02.251Z,12.60
2018-08-28T23:03:33.401Z,14.67
2018-08-28T23:06:03.780Z,16.33
2018-08-28T23:08:34.200Z,15.10
2018-08-28T23:11:04.594Z,15.17
2018-08-28T23:13:34.976Z,17.40
2018-08-28T23:16:05.383Z,14.20
2018-08-28T23:18:35.746Z,16.17
2018-08-28T23:21:06.128Z,15.60
2018-08-28T23:23:40.638Z,13.87
2018-08-28T23:26:16.137Z,17.27
2018-08-28T23:28:47.310Z,13.23
2018-08-28T23:31:17.716Z,14.30
2018-08-28T23:33:48.080Z,17.63
2018-08-28T23:36:18.480Z,14.47
2018-08-28T23:38:48.851Z,14.37
2018-08-28T23:41:38.625Z,14.80
2018-08-28T23:44:31.439Z,16.13
2018-08-28T23:47:01.778Z,13.60
2018-08-28T23:49:32.175Z,13.47
2018-08-28T23:52:02.500Z,14.20
2018-08-28T23:54:32.929Z,14.93
2018-08-28T23:57:04.090Z,12.87
2018-08-28T23:59:34.466Z,19.37
